Aviation Digital Data Service (ADDS)

Output produced by METARs form (0002 UTC 19 August 2019)
found at http://www.aviationweather.gov/metar/data/
 
Forecast for: DNSO (SOKOTO , NG)
Text: TAF DNSO 182300Z 1900/2006 27010KT 9999 TS FEW011 FEW019CB
Forecast period: 0000 to 1000 UTC 19 August 2019
Forecast type: FROM: standard forecast or significant change
Winds: from the W (270 degrees) at 12 MPH (10 knots; 5.1 m/s)
Visibility: 6 or more miles 10+ km)
Ceiling: at least 12,000 feet AGL
Clouds: few clouds at 1100 feet AGL
few clouds at 1900 feet AGL
Weather: TS  (thunderstorm)
Text: PROB30
Forecast period: 0400 to 0900 UTC 19 August 2019
Forecast type: TEMPORARY: The following changes expected for less than half the time period
Winds: from the ENE (70 degrees) at 17 MPH (15 knots; 7.7 m/s)
gusting to 52 MPH (45 knots; 23.1 m/s)
Visibility: 3 miles (5 km)
Ceiling: 1000 feet AGL
Clouds: broken clouds at 1000 feet AGL
few clouds at 1800 feet AGL
Weather: TSRA  (rain associated with thunderstorm(s))
Text: TEMPO 1904/1909 07015G45KT 5000 TSRA BKN010 FEW018CB
Forecast period: 1000 UTC 19 August 2019 to 0600 UTC 20 August 2019
Forecast type: BECOMING: Conditions expected to become as follows by 1200 UTC 19 August 2019
Winds: from the W (270 degrees) at 12 MPH (10 knots; 5.1 m/s)
Visibility: 6 or more miles 10+ km)
Ceiling: at least 12,000 feet AGL
Clouds: scattered clouds at 1000 feet AGL
Weather: NSW  (no significant weather)